sensor_id;sensor_type;location;lat;lon;timestamp;P1;durP1;ratioP1;P2;durP2;ratioP2
59169;SDS011;52474;52.236;5.114;2023-05-07T00:02:22;71.20;;;29.08;;
59169;SDS011;52474;52.236;5.114;2023-05-07T00:04:48;69.32;;;29.45;;
59169;SDS011;52474;52.236;5.114;2023-05-07T00:07:14;74.03;;;29.95;;
59169;SDS011;52474;52.236;5.114;2023-05-07T00:09:40;65.25;;;29.73;;
59169;SDS011;52474;52.236;5.114;2023-05-07T00:12:06;69.88;;;30.48;;
59169;SDS011;52474;52.236;5.114;2023-05-07T00:14:32;74.55;;;30.83;;
59169;SDS011;52474;52.236;5.114;2023-05-07T00:16:58;61.90;;;28.58;;
59169;SDS011;52474;52.236;5.114;2023-05-07T00:19:24;64.35;;;29.23;;
59169;SDS011;52474;52.236;5.114;2023-05-07T00:21:50;73.38;;;30.67;;
59169;SDS011;52474;52.236;5.114;2023-05-07T00:24:18;64.60;;;28.25;;
59169;SDS011;52474;52.236;5.114;2023-05-07T00:26:44;58.35;;;28.45;;
59169;SDS011;52474;52.236;5.114;2023-05-07T00:29:10;59.38;;;27.40;;
59169;SDS011;52474;52.236;5.114;2023-05-07T00:31:36;51.33;;;27.05;;
59169;SDS011;52474;52.236;5.114;2023-05-07T00:34:02;58.83;;;27.52;;
59169;SDS011;52474;52.236;5.114;2023-05-07T00:36:28;49.05;;;26.70;;
59169;SDS011;52474;52.236;5.114;2023-05-07T00:38:54;45.90;;;25.23;;
59169;SDS011;52474;52.236;5.114;2023-05-07T00:41:22;52.25;;;26.48;;
59169;SDS011;52474;52.236;5.114;2023-05-07T00:43:48;44.30;;;25.25;;
59169;SDS011;52474;52.236;5.114;2023-05-07T00:46:13;48.50;;;25.15;;
59169;SDS011;52474;52.236;5.114;2023-05-07T00:48:41;49.92;;;25.23;;
59169;SDS011;52474;52.236;5.114;2023-05-07T00:51:07;46.10;;;25.00;;
59169;SDS011;52474;52.236;5.114;2023-05-07T00:53:33;48.50;;;25.10;;
59169;SDS011;52474;52.236;5.114;2023-05-07T00:55:59;44.35;;;24.88;;
59169;SDS011;52474;52.236;5.114;2023-05-07T00:58:26;41.10;;;24.00;;
59169;SDS011;52474;52.236;5.114;2023-05-07T01:00:52;44.38;;;25.88;;
59169;SDS011;52474;52.236;5.114;2023-05-07T01:03:18;43.42;;;23.58;;
59169;SDS011;52474;52.236;5.114;2023-05-07T01:05:44;43.35;;;24.73;;
59169;SDS011;52474;52.236;5.114;2023-05-07T01:08:12;49.45;;;25.75;;
59169;SDS011;52474;52.236;5.114;2023-05-07T01:10:40;41.97;;;23.63;;
59169;SDS011;52474;52.236;5.114;2023-05-07T01:13:11;40.75;;;24.30;;
59169;SDS011;52474;52.236;5.114;2023-05-07T01:15:38;45.88;;;23.40;;
59169;SDS011;52474;52.236;5.114;2023-05-07T01:18:06;42.17;;;23.88;;
59169;SDS011;52474;52.236;5.114;2023-05-07T01:20:34;42.10;;;24.52;;
59169;SDS011;52474;52.236;5.114;2023-05-07T01:23:01;40.35;;;24.38;;
59169;SDS011;52474;52.236;5.114;2023-05-07T01:25:28;41.63;;;23.20;;
59169;SDS011;52474;52.236;5.114;2023-05-07T01:27:57;38.83;;;23.42;;
59169;SDS011;52474;52.236;5.114;2023-05-07T01:30:28;40.00;;;23.83;;
59169;SDS011;52474;52.236;5.114;2023-05-07T01:33:06;39.80;;;23.88;;
59169;SDS011;52474;52.236;5.114;2023-05-07T01:35:37;37.88;;;22.85;;
59169;SDS011;52474;52.236;5.114;2023-05-07T01:38:06;37.78;;;22.55;;
59169;SDS011;52474;52.236;5.114;2023-05-07T01:40:33;40.92;;;22.65;;
59169;SDS011;52474;52.236;5.114;2023-05-07T01:43:00;40.63;;;22.90;;
59169;SDS011;52474;52.236;5.114;2023-05-07T01:45:28;39.60;;;22.90;;
59169;SDS011;52474;52.236;5.114;2023-05-07T01:47:57;37.33;;;22.27;;
59169;SDS011;52474;52.236;5.114;2023-05-07T01:50:24;35.80;;;22.48;;
59169;SDS011;52474;52.236;5.114;2023-05-07T01:52:51;35.10;;;21.75;;
59169;SDS011;52474;52.236;5.114;2023-05-07T01:55:17;36.78;;;21.40;;
59169;SDS011;52474;52.236;5.114;2023-05-07T01:57:43;38.33;;;22.05;;
59169;SDS011;52474;52.236;5.114;2023-05-07T02:00:09;34.45;;;21.08;;
59169;SDS011;52474;52.236;5.114;2023-05-07T02:02:41;35.78;;;21.13;;
59169;SDS011;52474;52.236;5.114;2023-05-07T02:05:15;37.92;;;22.83;;
59169;SDS011;52474;52.236;5.114;2023-05-07T02:07:43;36.45;;;21.10;;
59169;SDS011;52474;52.236;5.114;2023-05-07T02:10:09;35.75;;;20.63;;
59169;SDS011;52474;52.236;5.114;2023-05-07T02:12:35;34.42;;;20.70;;
59169;SDS011;52474;52.236;5.114;2023-05-07T02:15:01;37.80;;;21.17;;
59169;SDS011;52474;52.236;5.114;2023-05-07T02:17:27;35.08;;;20.00;;
59169;SDS011;52474;52.236;5.114;2023-05-07T02:19:57;31.40;;;19.35;;
59169;SDS011;52474;52.236;5.114;2023-05-07T02:22:23;30.65;;;18.42;;
59169;SDS011;52474;52.236;5.114;2023-05-07T02:24:49;32.20;;;18.77;;
59169;SDS011;52474;52.236;5.114;2023-05-07T02:27:15;27.13;;;17.35;;
59169;SDS011;52474;52.236;5.114;2023-05-07T02:29:43;27.58;;;17.63;;
59169;SDS011;52474;52.236;5.114;2023-05-07T02:32:08;28.83;;;17.75;;
59169;SDS011;52474;52.236;5.114;2023-05-07T02:34:34;28.38;;;17.80;;
59169;SDS011;52474;52.236;5.114;2023-05-07T02:37:00;27.67;;;17.45;;
59169;SDS011;52474;52.236;5.114;2023-05-07T02:39:26;24.55;;;16.40;;
59169;SDS011;52474;52.236;5.114;2023-05-07T02:41:52;29.70;;;16.45;;
59169;SDS011;52474;52.236;5.114;2023-05-07T02:44:17;22.75;;;15.63;;
59169;SDS011;52474;52.236;5.114;2023-05-07T02:46:47;23.25;;;15.32;;
59169;SDS011;52474;52.236;5.114;2023-05-07T02:49:13;27.40;;;17.45;;
59169;SDS011;52474;52.236;5.114;2023-05-07T02:51:39;27.88;;;17.13;;
59169;SDS011;52474;52.236;5.114;2023-05-07T02:54:10;30.42;;;17.83;;
59169;SDS011;52474;52.236;5.114;2023-05-07T02:56:36;28.00;;;17.48;;
59169;SDS011;52474;52.236;5.114;2023-05-07T02:59:02;28.08;;;17.70;;
59169;SDS011;52474;52.236;5.114;2023-05-07T03:01:32;26.77;;;18.05;;
59169;SDS011;52474;52.236;5.114;2023-05-07T03:04:03;28.85;;;17.67;;
59169;SDS011;52474;52.236;5.114;2023-05-07T03:06:29;30.13;;;18.40;;
59169;SDS011;52474;52.236;5.114;2023-05-07T03:08:55;26.27;;;16.63;;
59169;SDS011;52474;52.236;5.114;2023-05-07T03:11:21;28.05;;;17.73;;
59169;SDS011;52474;52.236;5.114;2023-05-07T03:13:47;29.67;;;18.38;;
59169;SDS011;52474;52.236;5.114;2023-05-07T03:16:15;27.08;;;17.38;;
59169;SDS011;52474;52.236;5.114;2023-05-07T03:18:41;31.20;;;18.42;;
59169;SDS011;52474;52.236;5.114;2023-05-07T03:21:07;29.35;;;17.48;;
59169;SDS011;52474;52.236;5.114;2023-05-07T03:23:33;29.95;;;18.15;;
59169;SDS011;52474;52.236;5.114;2023-05-07T03:25:58;32.03;;;19.00;;
59169;SDS011;52474;52.236;5.114;2023-05-07T03:28:24;28.50;;;18.08;;
59169;SDS011;52474;52.236;5.114;2023-05-07T03:30:55;27.13;;;18.55;;
59169;SDS011;52474;52.236;5.114;2023-05-07T03:33:21;30.08;;;18.17;;
59169;SDS011;52474;52.236;5.114;2023-05-07T03:35:47;27.02;;;17.58;;
59169;SDS011;52474;52.236;5.114;2023-05-07T03:38:18;28.75;;;18.17;;
59169;SDS011;52474;52.236;5.114;2023-05-07T03:40:44;28.20;;;18.80;;
59169;SDS011;52474;52.236;5.114;2023-05-07T03:43:10;28.50;;;19.48;;
59169;SDS011;52474;52.236;5.114;2023-05-07T03:45:39;28.57;;;18.53;;
59169;SDS011;52474;52.236;5.114;2023-05-07T03:48:13;32.20;;;20.35;;
59169;SDS011;52474;52.236;5.114;2023-05-07T03:50:39;30.30;;;19.40;;
59169;SDS011;52474;52.236;5.114;2023-05-07T03:53:06;30.00;;;19.35;;
59169;SDS011;52474;52.236;5.114;2023-05-07T03:55:36;32.83;;;20.23;;
59169;SDS011;52474;52.236;5.114;2023-05-07T03:58:02;33.33;;;20.17;;
59169;SDS011;52474;52.236;5.114;2023-05-07T04:00:28;32.28;;;20.58;;
59169;SDS011;52474;52.236;5.114;2023-05-07T04:02:59;31.88;;;21.27;;
59169;SDS011;52474;52.236;5.114;2023-05-07T04:05:29;33.55;;;21.52;;
59169;SDS011;52474;52.236;5.114;2023-05-07T04:07:59;34.28;;;21.90;;
59169;SDS011;52474;52.236;5.114;2023-05-07T04:10:33;35.72;;;22.88;;
59169;SDS011;52474;52.236;5.114;2023-05-07T04:13:04;31.98;;;21.55;;
59169;SDS011;52474;52.236;5.114;2023-05-07T04:15:30;34.47;;;21.80;;
59169;SDS011;52474;52.236;5.114;2023-05-07T04:17:56;39.03;;;23.15;;
59169;SDS011;52474;52.236;5.114;2023-05-07T04:20:23;37.53;;;23.88;;
59169;SDS011;52474;52.236;5.114;2023-05-07T04:22:56;40.40;;;24.40;;
59169;SDS011;52474;52.236;5.114;2023-05-07T04:25:23;41.67;;;25.13;;
59169;SDS011;52474;52.236;5.114;2023-05-07T04:27:52;43.10;;;24.65;;
59169;SDS011;52474;52.236;5.114;2023-05-07T04:30:19;40.40;;;25.10;;
59169;SDS011;52474;52.236;5.114;2023-05-07T04:32:44;36.42;;;23.23;;
59169;SDS011;52474;52.236;5.114;2023-05-07T04:35:10;39.85;;;24.45;;
59169;SDS011;52474;52.236;5.114;2023-05-07T04:37:37;36.47;;;22.52;;
59169;SDS011;52474;52.236;5.114;2023-05-07T04:40:04;35.40;;;22.50;;
59169;SDS011;52474;52.236;5.114;2023-05-07T04:42:37;37.00;;;23.33;;
59169;SDS011;52474;52.236;5.114;2023-05-07T04:45:04;34.42;;;23.10;;
59169;SDS011;52474;52.236;5.114;2023-05-07T04:47:35;36.78;;;23.85;;
59169;SDS011;52474;52.236;5.114;2023-05-07T04:50:02;34.97;;;23.10;;
59169;SDS011;52474;52.236;5.114;2023-05-07T04:52:28;33.85;;;21.23;;
59169;SDS011;52474;52.236;5.114;2023-05-07T04:54:54;36.60;;;23.23;;
59169;SDS011;52474;52.236;5.114;2023-05-07T04:57:20;37.10;;;22.67;;
59169;SDS011;52474;52.236;5.114;2023-05-07T04:59:47;36.42;;;22.75;;
59169;SDS011;52474;52.236;5.114;2023-05-07T05:02:14;30.70;;;20.92;;
59169;SDS011;52474;52.236;5.114;2023-05-07T05:04:40;34.92;;;21.45;;
59169;SDS011;52474;52.236;5.114;2023-05-07T05:07:07;30.52;;;21.27;;
59169;SDS011;52474;52.236;5.114;2023-05-07T05:09:33;32.05;;;20.98;;
59169;SDS011;52474;52.236;5.114;2023-05-07T05:11:59;33.80;;;21.25;;
59169;SDS011;52474;52.236;5.114;2023-05-07T05:14:25;28.05;;;20.38;;
59169;SDS011;52474;52.236;5.114;2023-05-07T05:16:52;34.47;;;19.77;;
59169;SDS011;52474;52.236;5.114;2023-05-07T05:19:18;28.58;;;18.77;;
59169;SDS011;52474;52.236;5.114;2023-05-07T05:21:44;26.42;;;18.73;;
59169;SDS011;52474;52.236;5.114;2023-05-07T05:24:11;30.23;;;19.98;;
59169;SDS011;52474;52.236;5.114;2023-05-07T05:26:38;34.10;;;19.60;;
59169;SDS011;52474;52.236;5.114;2023-05-07T05:29:04;27.92;;;19.20;;
59169;SDS011;52474;52.236;5.114;2023-05-07T05:31:31;28.20;;;18.85;;
59169;SDS011;52474;52.236;5.114;2023-05-07T05:33:57;27.17;;;18.45;;
59169;SDS011;52474;52.236;5.114;2023-05-07T05:36:23;26.05;;;17.80;;
59169;SDS011;52474;52.236;5.114;2023-05-07T05:38:51;26.25;;;18.10;;
59169;SDS011;52474;52.236;5.114;2023-05-07T05:41:17;28.30;;;18.58;;
59169;SDS011;52474;52.236;5.114;2023-05-07T05:43:43;27.40;;;18.27;;
59169;SDS011;52474;52.236;5.114;2023-05-07T05:46:09;25.45;;;17.92;;
59169;SDS011;52474;52.236;5.114;2023-05-07T05:48:40;28.80;;;18.40;;
59169;SDS011;52474;52.236;5.114;2023-05-07T05:51:07;26.63;;;18.67;;
59169;SDS011;52474;52.236;5.114;2023-05-07T05:53:33;23.10;;;17.23;;
59169;SDS011;52474;52.236;5.114;2023-05-07T05:55:58;26.00;;;17.77;;
59169;SDS011;52474;52.236;5.114;2023-05-07T05:58:25;23.30;;;16.85;;
59169;SDS011;52474;52.236;5.114;2023-05-07T06:00:56;27.52;;;17.98;;
59169;SDS011;52474;52.236;5.114;2023-05-07T06:03:24;27.23;;;18.45;;
59169;SDS011;52474;52.236;5.114;2023-05-07T06:05:50;23.95;;;17.52;;
59169;SDS011;52474;52.236;5.114;2023-05-07T06:08:19;25.08;;;18.33;;
59169;SDS011;52474;52.236;5.114;2023-05-07T06:10:45;27.55;;;18.77;;
59169;SDS011;52474;52.236;5.114;2023-05-07T06:13:11;28.17;;;18.15;;
59169;SDS011;52474;52.236;5.114;2023-05-07T06:15:37;26.15;;;18.08;;
59169;SDS011;52474;52.236;5.114;2023-05-07T06:18:08;25.67;;;17.73;;
59169;SDS011;52474;52.236;5.114;2023-05-07T06:20:34;26.83;;;18.63;;
59169;SDS011;52474;52.236;5.114;2023-05-07T06:23:02;26.85;;;18.10;;
59169;SDS011;52474;52.236;5.114;2023-05-07T06:25:30;29.13;;;18.50;;
59169;SDS011;52474;52.236;5.114;2023-05-07T06:27:56;26.92;;;19.02;;
59169;SDS011;52474;52.236;5.114;2023-05-07T06:30:24;33.28;;;19.45;;
59169;SDS011;52474;52.236;5.114;2023-05-07T06:32:50;28.85;;;19.60;;
59169;SDS011;52474;52.236;5.114;2023-05-07T06:35:16;27.45;;;19.45;;
59169;SDS011;52474;52.236;5.114;2023-05-07T06:37:42;33.67;;;20.45;;
59169;SDS011;52474;52.236;5.114;2023-05-07T06:40:13;32.47;;;21.20;;
59169;SDS011;52474;52.236;5.114;2023-05-07T06:42:44;33.00;;;21.23;;
59169;SDS011;52474;52.236;5.114;2023-05-07T06:45:36;37.90;;;21.77;;
59169;SDS011;52474;52.236;5.114;2023-05-07T06:48:04;32.80;;;20.73;;
59169;SDS011;52474;52.236;5.114;2023-05-07T06:50:35;32.95;;;20.60;;
59169;SDS011;52474;52.236;5.114;2023-05-07T06:53:00;44.05;;;21.98;;
59169;SDS011;52474;52.236;5.114;2023-05-07T06:55:26;35.85;;;21.92;;
59169;SDS011;52474;52.236;5.114;2023-05-07T06:57:53;32.80;;;20.33;;
59169;SDS011;52474;52.236;5.114;2023-05-07T07:00:20;33.22;;;21.02;;
59169;SDS011;52474;52.236;5.114;2023-05-07T07:02:51;35.08;;;22.05;;
59169;SDS011;52474;52.236;5.114;2023-05-07T07:05:20;38.73;;;22.80;;
59169;SDS011;52474;52.236;5.114;2023-05-07T07:07:46;36.05;;;22.15;;
59169;SDS011;52474;52.236;5.114;2023-05-07T07:10:22;36.13;;;22.60;;
59169;SDS011;52474;52.236;5.114;2023-05-07T07:12:49;34.70;;;22.50;;
59169;SDS011;52474;52.236;5.114;2023-05-07T07:15:16;34.15;;;22.60;;
59169;SDS011;52474;52.236;5.114;2023-05-07T07:17:42;34.72;;;22.75;;
59169;SDS011;52474;52.236;5.114;2023-05-07T07:20:08;35.47;;;22.00;;
59169;SDS011;52474;52.236;5.114;2023-05-07T07:22:34;32.22;;;22.08;;
59169;SDS011;52474;52.236;5.114;2023-05-07T07:25:00;34.42;;;22.75;;
59169;SDS011;52474;52.236;5.114;2023-05-07T07:27:26;34.28;;;24.13;;
59169;SDS011;52474;52.236;5.114;2023-05-07T07:29:52;39.10;;;24.40;;
59169;SDS011;52474;52.236;5.114;2023-05-07T07:32:18;34.40;;;22.77;;
59169;SDS011;52474;52.236;5.114;2023-05-07T07:34:44;34.15;;;22.73;;
59169;SDS011;52474;52.236;5.114;2023-05-07T07:37:11;31.25;;;23.00;;
59169;SDS011;52474;52.236;5.114;2023-05-07T07:39:37;40.13;;;26.83;;
59169;SDS011;52474;52.236;5.114;2023-05-07T07:42:04;35.70;;;23.40;;
59169;SDS011;52474;52.236;5.114;2023-05-07T07:44:31;27.88;;;20.77;;
59169;SDS011;52474;52.236;5.114;2023-05-07T07:47:03;27.83;;;20.65;;
59169;SDS011;52474;52.236;5.114;2023-05-07T07:49:29;25.73;;;20.38;;
59169;SDS011;52474;52.236;5.114;2023-05-07T07:51:57;31.73;;;21.40;;
59169;SDS011;52474;52.236;5.114;2023-05-07T07:54:25;27.27;;;19.85;;
59169;SDS011;52474;52.236;5.114;2023-05-07T07:56:51;29.27;;;21.05;;
59169;SDS011;52474;52.236;5.114;2023-05-07T07:59:20;27.92;;;19.83;;
59169;SDS011;52474;52.236;5.114;2023-05-07T08:01:49;27.05;;;18.35;;
59169;SDS011;52474;52.236;5.114;2023-05-07T08:04:16;29.70;;;21.20;;
59169;SDS011;52474;52.236;5.114;2023-05-07T08:06:42;29.58;;;19.42;;
59169;SDS011;52474;52.236;5.114;2023-05-07T08:09:09;27.73;;;19.17;;
59169;SDS011;52474;52.236;5.114;2023-05-07T08:11:36;26.42;;;19.83;;
59169;SDS011;52474;52.236;5.114;2023-05-07T08:14:03;25.50;;;19.10;;
59169;SDS011;52474;52.236;5.114;2023-05-07T08:16:29;26.52;;;18.75;;
59169;SDS011;52474;52.236;5.114;2023-05-07T08:18:55;26.10;;;19.27;;
59169;SDS011;52474;52.236;5.114;2023-05-07T08:21:21;26.00;;;20.23;;
59169;SDS011;52474;52.236;5.114;2023-05-07T08:23:48;27.02;;;20.60;;
59169;SDS011;52474;52.236;5.114;2023-05-07T08:26:14;28.77;;;21.10;;
59169;SDS011;52474;52.236;5.114;2023-05-07T08:28:41;29.50;;;21.65;;
59169;SDS011;52474;52.236;5.114;2023-05-07T08:31:07;25.75;;;19.10;;
59169;SDS011;52474;52.236;5.114;2023-05-07T08:33:36;25.30;;;20.55;;
59169;SDS011;52474;52.236;5.114;2023-05-07T08:36:03;25.88;;;19.73;;
59169;SDS011;52474;52.236;5.114;2023-05-07T08:38:30;25.80;;;20.67;;
59169;SDS011;52474;52.236;5.114;2023-05-07T08:40:56;29.73;;;20.48;;
59169;SDS011;52474;52.236;5.114;2023-05-07T08:43:23;24.63;;;17.88;;
59169;SDS011;52474;52.236;5.114;2023-05-07T08:45:53;24.02;;;17.65;;
59169;SDS011;52474;52.236;5.114;2023-05-07T08:48:27;27.45;;;20.65;;
59169;SDS011;52474;52.236;5.114;2023-05-07T08:51:15;23.55;;;18.65;;
59169;SDS011;52474;52.236;5.114;2023-05-07T08:53:43;28.85;;;21.20;;
59169;SDS011;52474;52.236;5.114;2023-05-07T08:56:13;23.75;;;18.42;;
59169;SDS011;52474;52.236;5.114;2023-05-07T08:58:41;27.80;;;20.05;;
59169;SDS011;52474;52.236;5.114;2023-05-07T09:01:09;24.17;;;19.33;;
59169;SDS011;52474;52.236;5.114;2023-05-07T09:03:39;20.45;;;18.23;;
59169;SDS011;52474;52.236;5.114;2023-05-07T09:06:06;20.25;;;17.75;;
59169;SDS011;52474;52.236;5.114;2023-05-07T09:08:32;21.20;;;18.83;;
59169;SDS011;52474;52.236;5.114;2023-05-07T09:11:01;21.45;;;18.20;;
59169;SDS011;52474;52.236;5.114;2023-05-07T09:13:29;22.13;;;17.45;;
59169;SDS011;52474;52.236;5.114;2023-05-07T09:15:55;24.92;;;17.33;;
59169;SDS011;52474;52.236;5.114;2023-05-07T09:18:25;20.30;;;16.80;;
59169;SDS011;52474;52.236;5.114;2023-05-07T09:20:51;18.48;;;16.42;;
59169;SDS011;52474;52.236;5.114;2023-05-07T09:23:20;19.38;;;16.25;;
59169;SDS011;52474;52.236;5.114;2023-05-07T09:25:46;14.88;;;12.82;;
59169;SDS011;52474;52.236;5.114;2023-05-07T09:28:19;16.00;;;13.63;;
59169;SDS011;52474;52.236;5.114;2023-05-07T09:30:46;16.30;;;13.85;;
59169;SDS011;52474;52.236;5.114;2023-05-07T09:33:13;15.27;;;13.57;;
59169;SDS011;52474;52.236;5.114;2023-05-07T09:35:44;18.85;;;15.60;;
59169;SDS011;52474;52.236;5.114;2023-05-07T09:38:15;20.58;;;14.60;;
59169;SDS011;52474;52.236;5.114;2023-05-07T09:40:46;17.50;;;15.20;;
59169;SDS011;52474;52.236;5.114;2023-05-07T09:43:14;17.80;;;14.38;;
59169;SDS011;52474;52.236;5.114;2023-05-07T09:45:46;15.60;;;13.75;;
59169;SDS011;52474;52.236;5.114;2023-05-07T09:48:17;16.20;;;14.50;;
59169;SDS011;52474;52.236;5.114;2023-05-07T09:50:48;13.75;;;12.02;;
59169;SDS011;52474;52.236;5.114;2023-05-07T09:53:20;12.40;;;11.20;;
59169;SDS011;52474;52.236;5.114;2023-05-07T09:55:47;13.45;;;12.05;;
59169;SDS011;52474;52.236;5.114;2023-05-07T09:58:19;13.13;;;11.65;;
59169;SDS011;52474;52.236;5.114;2023-05-07T10:00:49;13.30;;;11.25;;
59169;SDS011;52474;52.236;5.114;2023-05-07T10:03:16;11.30;;;9.93;;
59169;SDS011;52474;52.236;5.114;2023-05-07T10:05:51;11.50;;;10.07;;
59169;SDS011;52474;52.236;5.114;2023-05-07T10:08:20;13.63;;;12.23;;
59169;SDS011;52474;52.236;5.114;2023-05-07T10:10:48;12.52;;;11.20;;
59169;SDS011;52474;52.236;5.114;2023-05-07T10:13:18;12.23;;;10.75;;
59169;SDS011;52474;52.236;5.114;2023-05-07T10:18:15;11.10;;;10.00;;
59169;SDS011;52474;52.236;5.114;2023-05-07T10:20:46;11.45;;;10.30;;
59169;SDS011;52474;52.236;5.114;2023-05-07T10:23:14;11.18;;;9.50;;
59169;SDS011;52474;52.236;5.114;2023-05-07T10:25:49;10.68;;;9.10;;
59169;SDS011;52474;52.236;5.114;2023-05-07T10:28:20;12.25;;;8.50;;
59169;SDS011;52474;52.236;5.114;2023-05-07T10:31:01;9.65;;;8.57;;
59169;SDS011;52474;52.236;5.114;2023-05-07T10:33:43;10.25;;;8.95;;
59169;SDS011;52474;52.236;5.114;2023-05-07T10:36:13;10.10;;;8.85;;
59169;SDS011;52474;52.236;5.114;2023-05-07T10:38:39;10.18;;;9.15;;
59169;SDS011;52474;52.236;5.114;2023-05-07T10:41:06;11.55;;;8.38;;
59169;SDS011;52474;52.236;5.114;2023-05-07T10:43:43;11.32;;;9.13;;
59169;SDS011;52474;52.236;5.114;2023-05-07T10:46:17;11.88;;;7.97;;
59169;SDS011;52474;52.236;5.114;2023-05-07T10:51:42;10.50;;;8.00;;
59169;SDS011;52474;52.236;5.114;2023-05-07T10:54:31;9.37;;;7.83;;
59169;SDS011;52474;52.236;5.114;2023-05-07T10:59:58;9.88;;;7.35;;
59169;SDS011;52474;52.236;5.114;2023-05-07T11:03:04;9.93;;;7.40;;
59169;SDS011;52474;52.236;5.114;2023-05-07T11:05:38;8.77;;;7.88;;
59169;SDS011;52474;52.236;5.114;2023-05-07T11:08:24;8.82;;;7.93;;
59169;SDS011;52474;52.236;5.114;2023-05-07T11:11:00;8.85;;;7.40;;
59169;SDS011;52474;52.236;5.114;2023-05-07T11:13:44;7.82;;;6.88;;
59169;SDS011;52474;52.236;5.114;2023-05-07T11:16:38;10.38;;;7.60;;
59169;SDS011;52474;52.236;5.114;2023-05-07T11:19:47;8.43;;;6.30;;
59169;SDS011;52474;52.236;5.114;2023-05-07T11:25:29;9.90;;;6.15;;
59169;SDS011;52474;52.236;5.114;2023-05-07T11:28:09;7.90;;;6.47;;
59169;SDS011;52474;52.236;5.114;2023-05-07T11:30:39;8.35;;;5.55;;
59169;SDS011;52474;52.236;5.114;2023-05-07T11:33:09;7.07;;;5.28;;
59169;SDS011;52474;52.236;5.114;2023-05-07T11:35:36;7.55;;;5.80;;
59169;SDS011;52474;52.236;5.114;2023-05-07T11:38:03;8.30;;;4.70;;
59169;SDS011;52474;52.236;5.114;2023-05-07T11:40:32;6.78;;;3.97;;
59169;SDS011;52474;52.236;5.114;2023-05-07T11:42:58;4.88;;;3.35;;
59169;SDS011;52474;52.236;5.114;2023-05-07T11:45:24;4.90;;;3.08;;
59169;SDS011;52474;52.236;5.114;2023-05-07T11:47:51;3.83;;;2.58;;
59169;SDS011;52474;52.236;5.114;2023-05-07T11:50:16;6.50;;;3.83;;
59169;SDS011;52474;52.236;5.114;2023-05-07T11:52:49;4.20;;;2.97;;
59169;SDS011;52474;52.236;5.114;2023-05-07T11:55:18;4.68;;;3.00;;
59169;SDS011;52474;52.236;5.114;2023-05-07T11:57:44;6.18;;;3.05;;
59169;SDS011;52474;52.236;5.114;2023-05-07T12:00:15;7.45;;;3.50;;
59169;SDS011;52474;52.236;5.114;2023-05-07T12:02:42;7.40;;;4.10;;
59169;SDS011;52474;52.236;5.114;2023-05-07T12:05:08;6.68;;;3.80;;
59169;SDS011;52474;52.236;5.114;2023-05-07T12:07:34;8.50;;;3.58;;
59169;SDS011;52474;52.236;5.114;2023-05-07T12:10:03;7.97;;;3.40;;
59169;SDS011;52474;52.236;5.114;2023-05-07T12:12:30;5.38;;;2.80;;
59169;SDS011;52474;52.236;5.114;2023-05-07T12:14:59;4.57;;;2.83;;
59169;SDS011;52474;52.236;5.114;2023-05-07T12:17:25;4.05;;;2.50;;
59169;SDS011;52474;52.236;5.114;2023-05-07T12:19:51;3.80;;;2.90;;
59169;SDS011;52474;52.236;5.114;2023-05-07T12:22:18;7.22;;;3.38;;
59169;SDS011;52474;52.236;5.114;2023-05-07T12:24:45;6.15;;;2.97;;
59169;SDS011;52474;52.236;5.114;2023-05-07T12:27:16;5.03;;;2.60;;
59169;SDS011;52474;52.236;5.114;2023-05-07T12:29:47;3.55;;;2.78;;
59169;SDS011;52474;52.236;5.114;2023-05-07T12:32:18;7.20;;;2.25;;
59169;SDS011;52474;52.236;5.114;2023-05-07T12:34:56;4.60;;;2.63;;
59169;SDS011;52474;52.236;5.114;2023-05-07T12:37:24;4.80;;;2.90;;
59169;SDS011;52474;52.236;5.114;2023-05-07T12:40:07;6.13;;;2.75;;
59169;SDS011;52474;52.236;5.114;2023-05-07T12:42:36;7.47;;;2.50;;
59169;SDS011;52474;52.236;5.114;2023-05-07T12:45:11;5.93;;;3.20;;
59169;SDS011;52474;52.236;5.114;2023-05-07T12:47:37;4.53;;;2.45;;
59169;SDS011;52474;52.236;5.114;2023-05-07T12:50:07;6.57;;;2.70;;
59169;SDS011;52474;52.236;5.114;2023-05-07T12:52:33;7.15;;;3.00;;
59169;SDS011;52474;52.236;5.114;2023-05-07T12:55:07;3.75;;;2.08;;
59169;SDS011;52474;52.236;5.114;2023-05-07T12:57:41;4.45;;;2.30;;
59169;SDS011;52474;52.236;5.114;2023-05-07T13:00:07;4.25;;;2.15;;
59169;SDS011;52474;52.236;5.114;2023-05-07T13:02:37;5.68;;;2.88;;
59169;SDS011;52474;52.236;5.114;2023-05-07T13:07:31;5.80;;;2.85;;
59169;SDS011;52474;52.236;5.114;2023-05-07T13:09:58;5.40;;;3.00;;
59169;SDS011;52474;52.236;5.114;2023-05-07T13:12:24;4.13;;;2.33;;
59169;SDS011;52474;52.236;5.114;2023-05-07T13:14:51;6.03;;;3.00;;
59169;SDS011;52474;52.236;5.114;2023-05-07T13:17:17;7.75;;;3.53;;
59169;SDS011;52474;52.236;5.114;2023-05-07T13:19:44;6.03;;;3.00;;
59169;SDS011;52474;52.236;5.114;2023-05-07T13:22:09;5.35;;;3.17;;
59169;SDS011;52474;52.236;5.114;2023-05-07T13:24:36;5.55;;;3.92;;
59169;SDS011;52474;52.236;5.114;2023-05-07T13:27:02;8.80;;;4.38;;
59169;SDS011;52474;52.236;5.114;2023-05-07T13:29:31;8.03;;;5.50;;
59169;SDS011;52474;52.236;5.114;2023-05-07T13:31:57;7.68;;;5.88;;
59169;SDS011;52474;52.236;5.114;2023-05-07T13:34:25;7.80;;;4.93;;
59169;SDS011;52474;52.236;5.114;2023-05-07T13:36:51;7.38;;;5.10;;
59169;SDS011;52474;52.236;5.114;2023-05-07T13:39:17;6.32;;;4.47;;
59169;SDS011;52474;52.236;5.114;2023-05-07T13:41:43;5.78;;;4.38;;
59169;SDS011;52474;52.236;5.114;2023-05-07T13:44:08;6.30;;;4.82;;
59169;SDS011;52474;52.236;5.114;2023-05-07T13:46:35;8.25;;;4.97;;
59169;SDS011;52474;52.236;5.114;2023-05-07T13:49:01;8.38;;;5.15;;
59169;SDS011;52474;52.236;5.114;2023-05-07T13:51:27;8.88;;;5.50;;
59169;SDS011;52474;52.236;5.114;2023-05-07T13:53:53;10.05;;;5.82;;
59169;SDS011;52474;52.236;5.114;2023-05-07T13:56:19;9.63;;;6.70;;
59169;SDS011;52474;52.236;5.114;2023-05-07T13:58:46;10.10;;;5.97;;
59169;SDS011;52474;52.236;5.114;2023-05-07T14:01:12;7.70;;;6.22;;
59169;SDS011;52474;52.236;5.114;2023-05-07T14:03:38;11.13;;;7.18;;
59169;SDS011;52474;52.236;5.114;2023-05-07T14:06:05;9.90;;;6.50;;
59169;SDS011;52474;52.236;5.114;2023-05-07T14:08:31;9.82;;;6.93;;
59169;SDS011;52474;52.236;5.114;2023-05-07T14:10:57;10.27;;;7.68;;
59169;SDS011;52474;52.236;5.114;2023-05-07T14:13:22;8.88;;;6.45;;
59169;SDS011;52474;52.236;5.114;2023-05-07T14:15:48;8.68;;;6.78;;
59169;SDS011;52474;52.236;5.114;2023-05-07T14:18:15;10.45;;;7.43;;
59169;SDS011;52474;52.236;5.114;2023-05-07T14:20:41;10.30;;;7.30;;
59169;SDS011;52474;52.236;5.114;2023-05-07T14:23:12;9.30;;;7.38;;
59169;SDS011;52474;52.236;5.114;2023-05-07T14:25:37;9.77;;;7.82;;
59169;SDS011;52474;52.236;5.114;2023-05-07T14:28:04;11.85;;;8.18;;
59169;SDS011;52474;52.236;5.114;2023-05-07T14:30:30;12.50;;;8.23;;
59169;SDS011;52474;52.236;5.114;2023-05-07T14:32:55;11.10;;;7.38;;
59169;SDS011;52474;52.236;5.114;2023-05-07T14:35:21;11.02;;;7.60;;
59169;SDS011;52474;52.236;5.114;2023-05-07T14:37:50;11.90;;;9.00;;
59169;SDS011;52474;52.236;5.114;2023-05-07T14:40:16;12.05;;;9.40;;
59169;SDS011;52474;52.236;5.114;2023-05-07T14:42:42;24.08;;;12.88;;
59169;SDS011;52474;52.236;5.114;2023-05-07T14:45:08;24.00;;;14.95;;
59169;SDS011;52474;52.236;5.114;2023-05-07T14:47:34;41.95;;;19.77;;
59169;SDS011;52474;52.236;5.114;2023-05-07T14:50:00;38.22;;;23.55;;